createdAt,value
2024-04-05T00:04:05.156Z,1.9
2024-04-05T00:09:05.341Z,1.8
2024-04-05T00:14:05.515Z,1.9
2024-04-05T00:19:08.539Z,1.9
2024-04-05T00:24:05.899Z,1.6
2024-04-05T00:29:06.099Z,1.9
2024-04-05T00:34:06.272Z,1.8
2024-04-05T00:39:06.464Z,2.2
2024-04-05T00:44:06.664Z,1.5
2024-04-05T00:49:06.868Z,1.8
2024-04-05T00:54:07.099Z,1.9
2024-04-05T00:59:07.250Z,1.4
2024-04-05T01:04:07.434Z,1.6
2024-04-05T01:09:07.642Z,2
2024-04-05T01:14:07.895Z,1.9
2024-04-05T01:19:08.059Z,1.6
2024-04-05T01:24:08.226Z,1.8
2024-04-05T01:29:09.824Z,1.6
2024-04-05T01:34:08.660Z,1.9
2024-04-05T01:39:08.876Z,1.7
2024-04-05T01:44:09.094Z,1.6
2024-04-05T01:49:09.366Z,1.7
2024-04-05T01:54:09.520Z,1.6
2024-04-05T01:59:09.743Z,2
2024-04-05T02:04:09.974Z,1.6
2024-04-05T02:09:10.161Z,1.5
2024-04-05T02:14:10.327Z,1.7
2024-04-05T02:19:10.478Z,1.6
2024-04-05T02:24:10.666Z,1.9
2024-04-05T02:29:10.863Z,1.7
2024-04-05T02:34:11.051Z,1.9
2024-04-05T02:39:19.052Z,1.8
2024-04-05T02:44:11.504Z,1.8
2024-04-05T02:49:11.718Z,1.9
2024-04-05T02:54:11.905Z,1.7
2024-04-05T02:59:12.121Z,1.5
2024-04-05T03:04:12.322Z,1.7
2024-04-05T03:09:12.577Z,1.6
2024-04-05T03:14:12.782Z,1.6
2024-04-05T03:19:13.063Z,1.9
2024-04-05T03:24:13.213Z,1.8
2024-04-05T03:29:13.417Z,2
2024-04-05T03:34:13.646Z,1.8
2024-04-05T03:39:13.878Z,1.8
2024-04-05T03:44:14.084Z,1.5
2024-04-05T03:49:14.318Z,2
2024-04-05T03:54:14.527Z,1.6
2024-04-05T03:59:14.718Z,1.9
2024-04-05T04:04:14.910Z,1.8
2024-04-05T04:09:15.130Z,1.5
2024-04-05T04:14:15.318Z,1.6
2024-04-05T04:19:15.510Z,2.1
2024-04-05T04:24:15.736Z,1.9
2024-04-05T04:29:15.944Z,2.1
2024-04-05T04:34:16.142Z,1.5
2024-04-05T04:39:16.293Z,1.8
2024-04-05T04:44:16.491Z,1.8
2024-04-05T04:49:16.727Z,1.7
2024-04-05T04:54:16.876Z,1.8
2024-04-05T04:59:17.059Z,1.8
2024-04-05T05:04:17.323Z,1.5
2024-04-05T05:09:17.504Z,1.7
2024-04-05T05:14:17.692Z,2.4
2024-04-05T05:19:17.942Z,1.8
2024-04-05T05:24:18.148Z,2
2024-04-05T05:29:18.371Z,1.8
2024-04-05T05:34:18.574Z,1.7
2024-04-05T05:39:18.801Z,1.7
2024-04-05T05:44:19.009Z,1.9
2024-04-05T05:49:19.191Z,1.6
2024-04-05T05:54:19.405Z,2
2024-04-05T05:59:19.612Z,1.9
2024-04-05T06:04:19.826Z,1.6
2024-04-05T06:09:20.020Z,1.8
2024-04-05T06:14:20.422Z,1.8
2024-04-05T06:19:20.400Z,1.8
2024-04-05T06:24:20.652Z,1.6
2024-04-05T06:29:20.809Z,2.1
2024-04-05T06:34:21.016Z,1.3
2024-04-05T06:39:21.218Z,1.7
2024-04-05T06:44:21.439Z,1.5
2024-04-05T06:49:21.608Z,1.4
2024-04-05T06:54:21.800Z,1.4
2024-04-05T06:59:22.057Z,1.5
2024-04-05T07:04:22.279Z,1.2
2024-04-05T07:09:22.447Z,1.2
2024-04-05T07:14:22.643Z,1.4
2024-04-05T07:19:22.873Z,2
2024-04-05T07:24:29.503Z,1.5
2024-04-05T07:29:23.320Z,1.4
2024-04-05T07:34:23.539Z,1.3
2024-04-05T07:39:23.797Z,1.5
2024-04-05T07:44:23.986Z,1.3
2024-04-05T07:49:24.242Z,1.5
2024-04-05T07:54:24.504Z,1
2024-04-05T07:59:24.762Z,1.4
2024-04-05T08:04:25.032Z,1.3
2024-04-05T08:09:25.301Z,1.6
2024-04-05T08:14:25.548Z,1.2
2024-04-05T08:19:25.765Z,1.3
2024-04-05T08:24:26.026Z,1.4
2024-04-05T08:29:26.273Z,1.3
2024-04-05T08:34:26.478Z,1.4
2024-04-05T08:39:26.712Z,1.3
2024-04-05T08:44:27.022Z,1.7
2024-04-05T08:49:27.178Z,1.6
2024-04-05T08:54:27.438Z,1.7
2024-04-05T08:59:27.674Z,1
2024-04-05T09:04:28.014Z,1.3
2024-04-05T09:09:28.202Z,1.3
2024-04-05T09:14:28.504Z,1.2
2024-04-05T09:19:28.675Z,1.4
2024-04-05T09:24:28.994Z,1.2
2024-04-05T09:29:29.122Z,1.4
2024-04-05T09:34:29.375Z,1.1
2024-04-05T09:39:29.570Z,1.1
2024-04-05T09:44:29.805Z,1.2
2024-04-05T09:49:30.109Z,0.9
2024-04-05T09:54:30.488Z,1
2024-04-05T09:59:30.661Z,1.2
2024-04-05T10:04:30.880Z,0.9
2024-04-05T10:09:31.193Z,0.9
2024-04-05T10:14:31.429Z,1
2024-04-05T10:19:31.684Z,1.1
2024-04-05T10:24:32.047Z,0.9
2024-04-05T10:29:32.244Z,1.2
2024-04-05T10:34:32.527Z,1.2
2024-04-05T10:39:32.816Z,1.1
2024-04-05T10:44:33.058Z,1
2024-04-05T10:49:33.367Z,0.9
2024-04-05T10:54:33.644Z,0.9
2024-04-05T10:59:33.936Z,1
2024-04-05T11:04:34.226Z,1.2
2024-04-05T11:09:34.544Z,1
2024-04-05T11:14:34.809Z,1
2024-04-05T11:19:35.089Z,0.9
2024-04-05T11:24:35.387Z,0.9
2024-04-05T11:29:35.701Z,0.9
2024-04-05T11:34:36.034Z,1.2
2024-04-05T11:39:36.366Z,1.1
2024-04-05T11:44:36.655Z,0.9
2024-04-05T11:49:36.949Z,1.2
2024-04-05T11:54:37.222Z,1
2024-04-05T11:59:37.549Z,1.4
2024-04-05T12:04:38.069Z,1.1
2024-04-05T12:09:40.293Z,1.1
2024-04-05T12:14:38.474Z,1.5
2024-04-05T12:19:38.803Z,1.2
2024-04-05T12:24:39.108Z,1
2024-04-05T12:29:39.388Z,1.4
2024-04-05T12:34:39.715Z,1.2
2024-04-05T12:39:39.977Z,1.1
2024-04-05T12:44:40.284Z,0.9
2024-04-05T12:49:40.560Z,0.9
2024-04-05T12:54:40.903Z,1.1
2024-04-05T12:59:41.222Z,0.6
2024-04-05T13:04:41.547Z,0.7
2024-04-05T13:09:41.839Z,0.9
2024-04-05T13:14:42.132Z,1.1
2024-04-05T13:19:44.414Z,0.7
2024-04-05T13:24:42.739Z,0.7
2024-04-05T13:29:43.084Z,0.8
2024-04-05T13:34:43.374Z,0.5
2024-04-05T13:39:43.682Z,0.5
2024-04-05T13:44:43.987Z,0.7
2024-04-05T13:49:44.247Z,0.8
2024-04-05T13:54:44.543Z,0.9
2024-04-05T13:59:44.857Z,0.9
2024-04-05T14:04:45.167Z,0.8
2024-04-05T14:09:45.519Z,0.7
2024-04-05T14:14:45.784Z,1.1
2024-04-05T14:19:46.070Z,0.8
2024-04-05T14:24:46.322Z,0.9
2024-04-05T14:29:46.591Z,0.9
2024-04-05T14:34:46.817Z,0.9
2024-04-05T14:39:47.046Z,0.8
2024-04-05T14:44:47.317Z,1
2024-04-05T14:49:47.543Z,1
2024-04-05T14:54:47.825Z,0.9
2024-04-05T14:59:48.107Z,0.9
2024-04-05T15:04:48.357Z,1
2024-04-05T15:09:48.634Z,1.1
2024-04-05T15:14:48.924Z,1
2024-04-05T15:19:49.239Z,1.1
2024-04-05T15:24:49.526Z,1.1
2024-04-05T15:29:49.804Z,1.2
2024-04-05T15:34:50.083Z,1.2
2024-04-05T15:39:51.689Z,1.2
2024-04-05T15:44:50.666Z,1.3
2024-04-05T15:49:50.974Z,1.2
2024-04-05T15:54:51.261Z,1.3
2024-04-05T15:59:51.587Z,1
2024-04-05T16:04:51.838Z,0.8
2024-04-05T16:09:52.149Z,0.9
2024-04-05T16:14:52.410Z,1
2024-04-05T16:19:52.671Z,1.1
2024-04-05T16:24:52.967Z,0.8
2024-04-05T16:29:53.219Z,0.8
2024-04-05T16:34:53.564Z,0.8
2024-04-05T16:39:53.830Z,1
2024-04-05T16:44:54.146Z,1
2024-04-05T16:49:56.883Z,0.6
2024-04-05T16:54:54.731Z,0.9
2024-04-05T16:59:55.001Z,0.7
2024-04-05T17:04:55.340Z,0.8
2024-04-05T17:09:55.631Z,0.9
2024-04-05T17:14:55.954Z,1
2024-04-05T17:19:56.209Z,0.8
2024-04-05T17:24:56.462Z,0.7
2024-04-05T17:29:56.766Z,1.3
2024-04-05T17:34:57.079Z,0.8
2024-04-05T17:39:57.335Z,1
2024-04-05T17:44:57.674Z,0.9
2024-04-05T17:49:58.007Z,1
2024-04-05T17:54:58.274Z,1.1
2024-04-05T18:00:01.986Z,1.1
2024-04-05T18:04:58.854Z,0.9
2024-04-05T18:09:59.165Z,1.2
2024-04-05T18:14:59.481Z,1.2
2024-04-05T18:19:59.734Z,1.2
2024-04-05T18:25:00.032Z,1.2
2024-04-05T18:30:00.317Z,1.3
2024-04-05T18:35:00.604Z,0.8
2024-04-05T18:40:00.888Z,0.9
2024-04-05T18:45:01.179Z,1.2
2024-04-05T18:50:01.502Z,1.1
2024-04-05T18:55:01.750Z,0.8
2024-04-05T19:00:02.042Z,1.1
2024-04-05T19:05:02.339Z,0.9
2024-04-05T19:10:02.677Z,1.1
2024-04-05T19:15:02.958Z,1.2
2024-04-05T19:20:03.277Z,1
2024-04-05T19:25:04.547Z,1.2
2024-04-05T19:30:04.565Z,1
2024-04-05T19:35:04.612Z,0.8
2024-04-05T19:40:04.492Z,1.2
2024-04-05T19:45:04.779Z,1
2024-04-05T19:50:05.108Z,1.2
2024-04-05T19:55:05.441Z,1
2024-04-05T20:00:05.700Z,1.2
2024-04-05T20:05:06.015Z,1.2
2024-04-05T20:10:06.335Z,1.2
2024-04-05T20:15:06.672Z,1.4
2024-04-05T20:20:06.999Z,1.2
2024-04-05T20:25:07.280Z,1.3
2024-04-05T20:30:07.564Z,1.2
2024-04-05T20:35:07.851Z,1
2024-04-05T20:40:08.169Z,1
2024-04-05T20:45:08.494Z,0.9
2024-04-05T20:50:08.835Z,0.9
2024-04-05T20:55:09.163Z,1
2024-04-05T21:00:09.490Z,0.9
2024-04-05T21:05:09.835Z,1.4
2024-04-05T21:10:10.119Z,1.1
2024-04-05T21:15:10.440Z,1
2024-04-05T21:20:10.716Z,1.4
2024-04-05T21:25:11.042Z,1.4
2024-04-05T21:30:11.349Z,1
2024-04-05T21:35:11.645Z,1
2024-04-05T21:45:12.220Z,1.1
2024-04-05T21:50:12.536Z,1.1
2024-04-05T22:00:13.112Z,1.3
2024-04-05T22:05:13.409Z,1.1
2024-04-05T22:10:13.682Z,1.1
2024-04-05T22:15:13.987Z,1.2
2024-04-05T22:20:14.288Z,1.3
2024-04-05T22:25:14.552Z,1.2
2024-04-05T22:30:14.804Z,1.3
2024-04-05T22:35:15.088Z,1.1
2024-04-05T22:40:15.351Z,1.1
2024-04-05T22:45:15.664Z,0.9
2024-04-05T22:50:15.865Z,0.9
2024-04-05T22:55:16.148Z,0.9
2024-04-05T23:00:16.404Z,0.8
2024-04-05T23:05:19.357Z,0.8
2024-04-05T23:10:16.921Z,0.8
2024-04-05T23:15:19.327Z,0.8
2024-04-05T23:20:17.447Z,0.8
2024-04-05T23:25:17.739Z,0.7
2024-04-05T23:30:17.969Z,1
2024-04-05T23:35:18.233Z,1.1
2024-04-05T23:40:18.496Z,0.7
2024-04-05T23:45:18.735Z,0.9
2024-04-05T23:50:19.055Z,0.8
2024-04-05T23:55:21.823Z,0.6
